Time;durP1;ratioP1;P1;durP2;ratioP2;P2;SDS_P1;SDS_P2;PMS_P1;PMS_P2;Temp;Humidity;BMP_temperature;BMP_pressure;BME280_temperature;BME280_humidity;BME280_pressure;Samples;Min_cycle;Max_cycle;Signal;HPM_P1;HPM_P2
2023/08/16 00:01:27;;;;;;;;;;;;;;;17.87;100.00;101836.88;10581080;28;19930;-69
2023/08/16 00:06:29;;;;;;;;;;;;;;;17.95;100.00;101839.78;10581483;28;20290;-69
2023/08/16 00:11:31;;;;;;;;;;;;;;;17.91;100.00;101833.03;10581927;28;19928;-69
2023/08/16 00:16:34;;;;;;;;;;;;;;;17.73;100.00;101819.28;10581230;28;19931;-69
2023/08/16 00:21:36;;;;;;;;;;;;;;;17.61;100.00;101826.28;10580161;28;19959;-69
2023/08/16 00:26:38;;;;;;;;;;;;;;;17.55;100.00;101833.81;10584245;22;19925;-65
2023/08/16 00:31:40;;;;;;;;;;;;;;;17.63;100.00;101832.34;10541781;28;20386;-66
2023/08/16 00:36:42;;;;;;;;;;;;;;;17.56;100.00;101833.72;10529407;28;19928;-65
2023/08/16 00:41:45;;;;;;;;;;;;;;;17.51;100.00;101843.78;10547206;28;19924;-65
2023/08/16 00:46:47;;;;;;;;;;;;;;;17.72;100.00;101849.38;10546259;28;19924;-66
2023/08/16 00:51:49;;;;;;;;;;;;;;;17.71;100.00;101849.47;10546771;28;19970;-66
2023/08/16 00:56:51;;;;;;;;;;;;;;;17.73;100.00;101860.81;10545907;28;19946;-65
2023/08/16 01:01:54;;;;;;;;;;;;;;;17.77;100.00;101867.56;10545781;28;20362;-65
2023/08/16 01:07:00;;;;;;;;;;;;;;;17.93;100.00;101854.13;10546066;28;19930;-65
2023/08/16 01:12:05;;;;;;;;;;;;;;;17.86;100.00;101847.56;10545325;28;19932;-65
2023/08/16 01:17:07;;;;;;;;;;;;;;;17.75;100.00;101859.75;10545816;28;19931;-65
2023/08/16 01:22:21;;;;;;;;;;;;;;;17.81;100.00;101864.59;10527731;28;19924;-65
2023/08/16 01:27:23;;;;;;;;;;;;;;;17.86;100.00;101872.22;10527180;28;19931;-65
2023/08/16 01:32:27;;;;;;;;;;;;;;;17.82;100.00;101878.72;10526654;28;19924;-65
2023/08/16 01:37:29;;;;;;;;;;;;;;;17.99;100.00;101881.03;10527156;28;19924;-65
2023/08/16 01:42:32;;;;;;;;;;;;;;;17.79;100.00;101890.34;10525612;28;20407;-65
2023/08/16 01:47:35;;;;;;;;;;;;;;;17.95;100.00;101889.28;10526044;28;20425;-65
2023/08/16 01:52:38;;;;;;;;;;;;;;;17.84;100.00;101882.09;10525828;28;20429;-66
2023/08/16 01:57:40;;;;;;;;;;;;;;;17.91;100.00;101875.44;10526244;28;19930;-66
2023/08/16 02:02:42;;;;;;;;;;;;;;;18.07;100.00;101874.31;10543230;28;19928;-65
2023/08/16 02:07:44;;;;;;;;;;;;;;;17.95;100.00;101882.19;10525815;28;19924;-66
2023/08/16 02:12:47;;;;;;;;;;;;;;;17.86;100.00;101882.00;10525445;28;19931;-65
2023/08/16 02:17:49;;;;;;;;;;;;;;;17.88;100.00;101880.09;10542739;28;20297;-65
2023/08/16 02:22:51;;;;;;;;;;;;;;;17.95;100.00;101884.00;10543189;28;19924;-65
2023/08/16 02:27:53;;;;;;;;;;;;;;;17.94;100.00;101883.16;10542156;28;20031;-65
2023/08/16 02:32:56;;;;;;;;;;;;;;;17.98;100.00;101892.56;10542802;28;19924;-65
2023/08/16 02:37:59;;;;;;;;;;;;;;;18.06;100.00;101889.38;10524698;28;19924;-65
2023/08/16 02:43:01;;;;;;;;;;;;;;;18.07;100.00;101888.44;10523674;28;20405;-65
2023/08/16 02:48:03;;;;;;;;;;;;;;;17.94;100.00;101891.09;10542185;28;19934;-66
2023/08/16 02:53:05;;;;;;;;;;;;;;;18.01;100.00;101880.91;10541995;28;19978;-65
2023/08/16 02:58:08;;;;;;;;;;;;;;;17.91;100.00;101893.13;10523098;28;19924;-65
2023/08/16 03:03:10;;;;;;;;;;;;;;;17.79;100.00;101892.16;10541585;28;19930;-65
2023/08/16 03:08:12;;;;;;;;;;;;;;;17.97;100.00;101893.53;10541526;28;20108;-65
2023/08/16 03:13:15;;;;;;;;;;;;;;;17.94;100.00;101887.63;10523468;28;19938;-65
2023/08/16 03:18:17;;;;;;;;;;;;;;;17.92;100.00;101893.03;10506704;28;19924;-66
2023/08/16 03:23:19;;;;;;;;;;;;;;;18.15;100.00;101886.06;10540362;28;20371;-65
2023/08/16 03:28:21;;;;;;;;;;;;;;;17.92;100.00;101895.69;10540105;28;19924;-65
2023/08/16 03:33:23;;;;;;;;;;;;;;;17.82;100.00;101894.59;10540786;28;19935;-65
2023/08/16 03:38:26;;;;;;;;;;;;;;;17.70;100.00;101898.09;10540047;28;19925;-66
2023/08/16 03:43:29;;;;;;;;;;;;;;;17.55;100.00;101898.22;10539863;28;19924;-65
2023/08/16 03:48:31;;;;;;;;;;;;;;;17.37;100.00;101908.28;10539852;28;20030;-65
2023/08/16 03:53:33;;;;;;;;;;;;;;;17.31;100.00;101915.78;10539726;28;19954;-65
2023/08/16 03:58:35;;;;;;;;;;;;;;;17.23;100.00;101929.53;10522369;28;19931;-65
2023/08/16 04:03:38;;;;;;;;;;;;;;;17.08;100.00;101940.22;10540182;28;19930;-64
2023/08/16 04:08:40;;;;;;;;;;;;;;;17.13;100.00;101939.91;10546417;28;19924;-65
2023/08/16 04:13:42;;;;;;;;;;;;;;;16.88;100.00;101924.84;10548401;28;19924;-65
2023/08/16 04:18:44;;;;;;;;;;;;;;;16.95;100.00;101923.47;10548174;28;19931;-64
2023/08/16 04:23:47;;;;;;;;;;;;;;;16.95;100.00;101928.75;10547279;28;20302;-64
2023/08/16 04:28:49;;;;;;;;;;;;;;;16.90;100.00;101933.50;10529427;28;19924;-64
2023/08/16 04:33:51;;;;;;;;;;;;;;;16.89;100.00;101937.97;10528952;28;20390;-65
2023/08/16 04:38:53;;;;;;;;;;;;;;;17.04;100.00;101933.41;10529430;28;19928;-65
2023/08/16 04:43:56;;;;;;;;;;;;;;;16.86;100.00;101927.56;10546480;28;19924;-65
2023/08/16 04:48:58;;;;;;;;;;;;;;;16.85;100.00;101933.81;10546988;28;19924;-65
2023/08/16 04:54:00;;;;;;;;;;;;;;;16.90;100.00;101946.72;10528168;28;20003;-65
2023/08/16 04:59:02;;;;;;;;;;;;;;;16.83;100.00;101948.91;10546561;28;19931;-65
2023/08/16 05:04:08;;;;;;;;;;;;;;;17.01;100.00;101951.31;10546260;28;19931;-65
2023/08/16 05:09:11;;;;;;;;;;;;;;;17.34;100.00;101955.28;10545567;28;19947;-65
2023/08/16 05:14:13;;;;;;;;;;;;;;;17.24;100.00;101960.34;10545376;28;19935;-65
2023/08/16 05:19:15;;;;;;;;;;;;;;;17.46;100.00;101970.34;10544812;28;19925;-65
2023/08/16 05:24:18;;;;;;;;;;;;;;;17.60;100.00;101982.63;10544838;28;19931;-65
2023/08/16 05:29:20;;;;;;;;;;;;;;;17.52;100.00;101980.53;10544751;28;19924;-66
2023/08/16 05:34:22;;;;;;;;;;;;;;;17.63;100.00;101983.28;10545202;28;19955;-65
2023/08/16 05:39:25;;;;;;;;;;;;;;;17.50;100.00;101976.25;10527145;28;19924;-65
2023/08/16 05:44:27;;;;;;;;;;;;;;;17.65;100.00;101983.16;10544724;28;19924;-65
2023/08/16 05:49:30;;;;;;;;;;;;;;;17.90;100.00;101974.41;10543987;28;20369;-65
2023/08/16 05:54:32;;;;;;;;;;;;;;;18.05;100.00;101976.94;10525777;28;19950;-65
2023/08/16 05:59:34;;;;;;;;;;;;;;;18.03;100.00;101977.03;10544208;28;19930;-65
2023/08/16 06:04:36;;;;;;;;;;;;;;;18.20;100.00;101973.19;10543204;28;19924;-64
2023/08/16 06:09:39;;;;;;;;;;;;;;;18.22;100.00;101976.56;10543795;28;19924;-64
2023/08/16 06:14:41;;;;;;;;;;;;;;;18.23;100.00;101980.94;10524983;28;20367;-64
2023/08/16 06:19:43;;;;;;;;;;;;;;;18.44;100.00;101989.16;10543388;28;20014;-65
2023/08/16 06:24:45;;;;;;;;;;;;;;;17.95;100.00;101993.47;10542410;28;20314;-64
2023/08/16 06:29:48;;;;;;;;;;;;;;;17.90;100.00;101997.41;10542263;28;19925;-64
2023/08/16 06:34:50;;;;;;;;;;;;;;;17.98;100.00;101995.91;10542123;28;20366;-64
2023/08/16 06:39:52;;;;;;;;;;;;;;;18.75;100.00;101985.13;10524580;28;19930;-64
2023/08/16 06:44:54;;;;;;;;;;;;;;;18.72;100.00;101992.47;10542303;28;19931;-65
2023/08/16 06:49:56;;;;;;;;;;;;;;;18.57;100.00;102005.84;10541527;28;20388;-64
2023/08/16 06:54:59;;;;;;;;;;;;;;;18.14;100.00;102029.28;10542125;28;19924;-64
2023/08/16 07:00:03;;;;;;;;;;;;;;;18.48;100.00;102017.16;10541269;28;19959;-64
2023/08/16 07:05:06;;;;;;;;;;;;;;;18.66;100.00;102008.81;10541004;28;20102;-64
2023/08/16 07:10:09;;;;;;;;;;;;;;;18.79;100.00;102014.06;10540960;28;19924;-64
2023/08/16 07:15:11;;;;;;;;;;;;;;;18.94;100.00;102016.47;10522911;28;20011;-64
2023/08/16 07:20:13;;;;;;;;;;;;;;;19.12;99.23;102001.00;10523397;28;19928;-64
2023/08/16 07:25:16;;;;;;;;;;;;;;;19.31;100.00;102003.09;10541022;28;19928;-64
2023/08/16 07:30:18;;;;;;;;;;;;;;;19.12;99.73;102001.00;10522418;28;19970;-64
2023/08/16 07:35:21;;;;;;;;;;;;;;;18.89;100.00;102007.16;10540854;28;19928;-64
2023/08/16 07:40:23;;;;;;;;;;;;;;;19.10;100.00;102002.94;10522187;28;19931;-64
2023/08/16 07:45:25;;;;;;;;;;;;;;;19.12;100.00;102008.97;10539845;28;19924;-64
2023/08/16 07:50:27;;;;;;;;;;;;;;;19.40;99.18;102014.88;10540492;28;19968;-64
2023/08/16 07:55:33;;;;;;;;;;;;;;;20.24;95.16;102009.31;10539935;28;20441;-64
2023/08/16 08:00:36;;;;;;;;;;;;;;;21.82;86.63;102014.09;10540285;28;19924;-64
2023/08/16 08:05:38;;;;;;;;;;;;;;;21.85;81.01;102013.81;10539463;28;19924;-64
2023/08/16 08:10:43;;;;;;;;;;;;;;;21.30;85.47;102022.00;10540108;28;19969;-64
2023/08/16 08:15:46;;;;;;;;;;;;;;;21.28;85.52;102023.09;10521498;28;20390;-64
2023/08/16 08:20:48;;;;;;;;;;;;;;;21.15;84.94;102029.44;10539259;28;19971;-65
2023/08/16 08:25:51;;;;;;;;;;;;;;;22.39;81.46;102018.97;10539103;28;20439;-64
2023/08/16 08:30:53;;;;;;;;;;;;;;;22.12;81.45;102033.72;10538834;28;19924;-64
2023/08/16 08:35:55;;;;;;;;;;;;;;;23.22;77.66;102034.69;10521645;28;19924;-65
2023/08/16 08:40:58;;;;;;;;;;;;;;;22.87;77.81;102034.25;10539477;28;19931;-64
2023/08/16 08:46:02;;;;;;;;;;;;;;;23.49;77.42;102034.84;10539377;28;19930;-65
2023/08/16 08:51:05;;;;;;;;;;;;;;;23.34;78.04;102044.28;10520951;28;20335;-65
2023/08/16 08:56:09;;;;;;;;;;;;;;;23.18;76.72;102039.50;10527053;28;19924;-65
2023/08/16 09:01:11;;;;;;;;;;;;;;;24.02;74.58;102037.97;10512278;28;19978;-65
2023/08/16 09:06:13;;;;;;;;;;;;;;;23.80;74.74;102034.63;10546355;28;20012;-65
2023/08/16 09:11:16;;;;;;;;;;;;;;;23.67;72.68;102034.09;10545665;28;19935;-65
2023/08/16 09:16:18;;;;;;;;;;;;;;;24.54;70.69;102027.56;10545368;28;20277;-65
2023/08/16 09:21:24;;;;;;;;;;;;;;;25.52;69.00;102027.69;10545773;28;19924;-65
2023/08/16 09:26:27;;;;;;;;;;;;;;;25.07;67.05;102020.59;10544845;28;19975;-65
2023/08/16 09:31:29;;;;;;;;;;;;;;;24.54;68.28;102024.88;10544648;28;20010;-65
2023/08/16 09:36:33;;;;;;;;;;;;;;;25.22;68.34;102027.09;10544536;28;19970;-64
2023/08/16 09:41:39;;;;;;;;;;;;;;;25.83;66.35;102026.38;10544982;28;19947;-64
2023/08/16 09:46:41;;;;;;;;;;;;;;;25.15;66.09;102015.31;10544051;28;19924;-64
2023/08/16 09:51:47;;;;;;;;;;;;;;;26.29;66.64;102022.44;10526501;28;19963;-64
2023/08/16 09:56:52;;;;;;;;;;;;;;;25.91;64.44;102021.88;10526900;28;19924;-65
2023/08/16 10:01:57;;;;;;;;;;;;;;;27.15;64.59;102015.06;10544166;28;19931;-65
2023/08/16 10:07:04;;;;;;;;;;;;;;;25.31;63.76;102014.63;10543428;28;19930;-65
2023/08/16 10:12:09;;;;;;;;;;;;;;;25.84;64.06;102003.91;10543815;28;19924;-65
2023/08/16 10:17:12;;;;;;;;;;;;;;;28.08;60.89;102005.66;10509140;28;19924;-65
2023/08/16 10:22:19;;;;;;;;;;;;;;;27.94;59.89;101998.31;10525338;28;19934;-65
2023/08/16 10:27:34;;;;;;;;;;;;;;;28.20;59.94;102005.28;10526972;28;19932;-65
2023/08/16 10:32:37;;;;;;;;;;;;;;;26.98;61.00;102016.06;10542961;28;20018;-65
2023/08/16 10:37:39;;;;;;;;;;;;;;;27.11;57.70;102008.31;10524154;28;20366;-65
2023/08/16 10:42:58;;;;;;;;;;;;;;;28.50;58.54;102015.22;10524007;28;19925;-65
2023/08/16 10:48:18;;;;;;;;;;;;;;;28.37;57.16;102011.44;10541659;28;19924;-65
2023/08/16 10:53:23;;;;;;;;;;;;;;;27.22;55.43;102015.22;10541749;28;19928;-65
2023/08/16 10:58:25;;;;;;;;;;;;;;;28.27;56.73;102014.34;10541595;28;19938;-65
2023/08/16 11:03:31;;;;;;;;;;;;;;;28.77;56.40;102009.53;10523296;28;20492;-66
2023/08/16 11:08:34;;;;;;;;;;;;;;;27.93;58.15;102013.63;10523785;28;20049;-65
2023/08/16 11:13:38;;;;;;;;;;;;;;;25.40;60.71;102015.53;10523594;28;19924;-65
2023/08/16 11:18:41;;;;;;;;;;;;;;;26.02;60.18;102011.91;10539926;28;20301;-66
2023/08/16 11:23:44;;;;;;;;;;;;;;;26.80;59.69;102006.31;10523416;28;19935;-64
2023/08/16 11:28:46;;;;;;;;;;;;;;;27.28;59.12;102013.69;10522214;28;19924;-67
2023/08/16 11:33:48;;;;;;;;;;;;;;;26.72;59.96;101998.22;10540254;28;20297;-64
2023/08/16 11:38:51;;;;;;;;;;;;;;;26.66;58.43;102010.50;10540792;28;19924;-66
2023/08/16 11:43:58;;;;;;;;;;;;;;;27.65;58.80;102004.25;10540643;28;19924;-65
2023/08/16 11:49:00;;;;;;;;;;;;;;;28.85;56.34;101996.81;10539883;28;19931;-66
2023/08/16 11:54:02;;;;;;;;;;;;;;;29.36;54.54;101998.94;10521933;28;20341;-65
2023/08/16 11:59:05;;;;;;;;;;;;;;;29.38;54.83;101993.34;10540363;28;19934;-65
2023/08/16 12:04:07;;;;;;;;;;;;;;;28.65;53.29;101996.47;10539594;28;19967;-65
2023/08/16 12:09:09;;;;;;;;;;;;;;;27.36;56.93;101989.53;10539459;28;19925;-69
2023/08/16 12:14:11;;;;;;;;;;;;;;;27.40;58.60;101988.16;10522278;28;19924;-67
2023/08/16 12:19:20;;;;;;;;;;;;;;;26.65;57.16;101981.09;10521400;28;20393;-67
2023/08/16 12:24:22;;;;;;;;;;;;;;;26.84;58.38;101958.44;10521364;28;20279;-64
2023/08/16 12:29:26;;;;;;;;;;;;;;;26.22;60.04;101965.03;10544433;28;19928;-64
2023/08/16 12:34:28;;;;;;;;;;;;;;;25.52;59.16;101968.72;10547711;28;20038;-63
2023/08/16 12:39:30;;;;;;;;;;;;;;;25.58;61.29;101962.69;10546918;28;20290;-63
2023/08/16 12:44:34;;;;;;;;;;;;;;;26.83;59.58;101956.75;10608632;22;19946;-63
2023/08/16 12:49:36;;;;;;;;;;;;;;;28.61;55.20;101959.28;10631305;27;20369;-63
2023/08/16 12:54:38;;;;;;;;;;;;;;;28.10;54.96;101952.47;10631114;27;20002;-63
2023/08/16 12:59:40;;;;;;;;;;;;;;;28.09;56.46;101953.53;10630972;27;19948;-63
2023/08/16 13:04:52;;;;;;;;;;;;;;;27.29;55.56;101940.97;10631370;27;19975;-70
2023/08/16 13:09:57;;;;;;;;;;;;;;;27.09;57.46;101943.16;10631787;27;19930;-70
2023/08/16 13:15:03;;;;;;;;;;;;;;;25.94;59.01;101946.47;10630920;27;19927;-70
2023/08/16 13:20:09;;;;;;;;;;;;;;;25.28;60.07;101947.94;10630707;27;19924;-70
2023/08/16 13:25:24;;;;;;;;;;;;;;;26.84;59.52;101945.84;10630022;27;19945;-70
2023/08/16 13:30:30;;;;;;;;;;;;;;;26.72;60.86;101938.31;10628506;27;20365;-70
2023/08/16 13:35:35;;;;;;;;;;;;;;;27.01;57.70;101930.56;10628314;27;19924;-70
2023/08/16 13:40:51;;;;;;;;;;;;;;;25.95;60.17;101937.41;10629031;27;19923;-69
2023/08/16 13:45:54;;;;;;;;;;;;;;;26.98;60.50;101930.91;10627661;27;20388;-70
2023/08/16 13:50:57;;;;;;;;;;;;;;;26.54;60.61;101930.34;10629422;27;19923;-70
2023/08/16 13:56:01;;;;;;;;;;;;;;;26.51;60.14;101928.84;10628620;27;20407;-70
2023/08/16 14:01:03;;;;;;;;;;;;;;;24.98;62.06;101925.06;10629058;27;19930;-70
2023/08/16 14:06:05;;;;;;;;;;;;;;;25.55;63.71;101932.69;10626977;27;19927;-70
2023/08/16 14:11:08;;;;;;;;;;;;;;;25.45;62.91;101931.97;10628588;27;19998;-70
2023/08/16 14:16:10;;;;;;;;;;;;;;;26.13;63.08;101933.81;10628349;27;19929;-70
2023/08/16 14:21:12;;;;;;;;;;;;;;;25.49;63.51;101936.03;10628189;27;20014;-70
2023/08/16 14:26:18;;;;;;;;;;;;;;;25.19;64.79;101940.81;10627908;27;20014;-70
2023/08/16 14:31:23;;;;;;;;;;;;;;;25.43;64.34;101942.84;10626635;27;19923;-69
2023/08/16 14:36:25;;;;;;;;;;;;;;;25.48;64.81;101935.16;10626944;27;20445;-70
2023/08/16 14:41:27;;;;;;;;;;;;;;;24.43;64.57;101942.97;10627169;27;19923;-69
2023/08/16 14:46:30;;;;;;;;;;;;;;;25.60;64.47;101949.13;10627179;27;19930;-69
2023/08/16 14:51:32;;;;;;;;;;;;;;;25.17;65.09;101943.66;10626327;27;20327;-70
2023/08/16 14:56:34;;;;;;;;;;;;;;;25.08;65.54;101946.41;10625127;27;19923;-69
2023/08/16 15:01:37;;;;;;;;;;;;;;;24.89;65.00;101945.59;10626679;27;19967;-70
2023/08/16 15:06:39;;;;;;;;;;;;;;;25.40;64.83;101938.66;10625749;27;20331;-69
2023/08/16 15:11:41;;;;;;;;;;;;;;;24.37;63.64;101938.22;10626355;27;19930;-69
2023/08/16 15:16:43;;;;;;;;;;;;;;;24.86;66.67;101945.91;10626120;27;19923;-69
2023/08/16 15:21:46;;;;;;;;;;;;;;;25.19;66.19;101933.59;10625333;27;20094;-69
2023/08/16 15:26:50;;;;;;;;;;;;;;;25.22;65.80;101933.31;10624948;27;19923;-70
2023/08/16 15:31:54;;;;;;;;;;;;;;;25.25;63.49;101929.47;10624975;27;20212;-69
2023/08/16 15:36:56;;;;;;;;;;;;;;;25.80;60.90;101922.91;10625497;27;19951;-69
2023/08/16 15:41:58;;;;;;;;;;;;;;;25.47;61.47;101917.41;10624494;27;19923;-69
2023/08/16 15:47:01;;;;;;;;;;;;;;;25.97;61.38;101914.97;10624595;28;20281;-69
2023/08/16 15:52:03;;;;;;;;;;;;;;;25.33;61.89;101910.78;10625235;28;19954;-69
2023/08/16 15:57:08;;;;;;;;;;;;;;;25.09;63.49;101906.06;10625167;27;19923;-69
2023/08/16 16:02:10;;;;;;;;;;;;;;;24.30;67.07;101910.38;10627167;27;20449;-69
2023/08/16 16:07:12;;;;;;;;;;;;;;;24.45;68.29;101913.38;10633581;27;20021;-70
2023/08/16 16:12:14;;;;;;;;;;;;;;;24.10;67.46;101915.00;10631515;27;20364;-69
2023/08/16 16:17:22;;;;;;;;;;;;;;;24.10;67.11;101910.50;10633213;27;19934;-69
2023/08/16 16:22:24;;;;;;;;;;;;;;;24.24;67.36;101909.16;10614202;27;20382;-69
2023/08/16 16:27:26;;;;;;;;;;;;;;;23.69;67.37;101901.97;10632744;27;19934;-69
2023/08/16 16:32:29;;;;;;;;;;;;;;;23.86;68.59;101903.03;10631939;27;19923;-69
2023/08/16 16:37:31;;;;;;;;;;;;;;;23.46;67.56;101896.16;10631159;27;19924;-69
2023/08/16 16:42:33;;;;;;;;;;;;;;;23.85;69.58;101892.50;10631789;27;19924;-69
2023/08/16 16:47:36;;;;;;;;;;;;;;;23.70;69.72;101903.66;10630768;27;20011;-69
2023/08/16 16:52:38;;;;;;;;;;;;;;;23.72;70.23;101898.13;10631822;27;19972;-69
2023/08/16 16:57:40;;;;;;;;;;;;;;;23.59;71.34;101887.81;10631025;27;19923;-69
2023/08/16 17:02:43;;;;;;;;;;;;;;;23.65;72.34;101881.03;10630861;27;20290;-69
2023/08/16 17:07:45;;;;;;;;;;;;;;;23.52;71.79;101881.38;10631072;27;19923;-70
2023/08/16 17:12:48;;;;;;;;;;;;;;;23.51;72.10;101877.00;10628785;27;19924;-70
2023/08/16 17:17:50;;;;;;;;;;;;;;;23.37;71.81;101873.81;10630752;27;19923;-69
2023/08/16 17:22:53;;;;;;;;;;;;;;;23.32;70.20;101876.09;10630602;27;19923;-69
2023/08/16 17:27:58;;;;;;;;;;;;;;;23.24;70.73;101880.47;10629059;27;19933;-69
2023/08/16 17:33:00;;;;;;;;;;;;;;;22.87;71.71;101879.38;10630130;27;20003;-69
2023/08/16 17:38:03;;;;;;;;;;;;;;;22.86;72.54;101880.38;10629998;27;19969;-69
2023/08/16 17:43:05;;;;;;;;;;;;;;;22.85;72.13;101889.38;10629421;27;19923;-69
2023/08/16 17:48:07;;;;;;;;;;;;;;;22.75;73.37;101885.88;10629587;27;19967;-69
2023/08/16 17:53:09;;;;;;;;;;;;;;;22.54;72.72;101889.50;10629414;27;19932;-69
2023/08/16 17:58:12;;;;;;;;;;;;;;;22.67;72.52;101889.25;10629240;27;19932;-69
2023/08/16 18:03:14;;;;;;;;;;;;;;;22.47;71.07;101888.41;10629082;27;19930;-69
2023/08/16 18:08:16;;;;;;;;;;;;;;;22.17;70.96;101889.31;10628682;27;19968;-70
2023/08/16 18:13:18;;;;;;;;;;;;;;;22.13;72.73;101894.06;10628568;27;19931;-69
2023/08/16 18:18:21;;;;;;;;;;;;;;;22.22;72.25;101890.56;10627413;27;19924;-69
2023/08/16 18:23:23;;;;;;;;;;;;;;;21.98;71.71;101885.63;10628828;27;20042;-69
2023/08/16 18:28:25;;;;;;;;;;;;;;;21.87;73.17;101875.06;10626364;27;19955;-69
2023/08/16 18:33:28;;;;;;;;;;;;;;;21.74;74.80;101883.31;10627829;27;19928;-69
2023/08/16 18:38:30;;;;;;;;;;;;;;;21.56;74.64;101884.91;10626410;27;19923;-70
2023/08/16 18:43:32;;;;;;;;;;;;;;;21.51;75.21;101887.97;10626563;27;19923;-69
2023/08/16 18:48:34;;;;;;;;;;;;;;;21.26;77.12;101891.88;10626594;27;19930;-70
2023/08/16 18:53:37;;;;;;;;;;;;;;;21.33;76.49;101899.22;10626374;27;20472;-69
2023/08/16 18:58:39;;;;;;;;;;;;;;;21.32;76.67;101912.69;10624998;27;20267;-69
2023/08/16 19:03:42;;;;;;;;;;;;;;;21.30;78.09;101915.47;10626625;27;19930;-69
2023/08/16 19:08:45;;;;;;;;;;;;;;;21.35;78.74;101931.06;10626397;27;19924;-69
2023/08/16 19:13:48;;;;;;;;;;;;;;;21.37;79.29;101941.56;10626251;27;19927;-69
2023/08/16 19:18:53;;;;;;;;;;;;;;;21.18;77.38;101943.13;10626087;27;19923;-69
2023/08/16 19:23:55;;;;;;;;;;;;;;;21.43;77.22;101941.88;10625307;27;20388;-70
2023/08/16 19:28:59;;;;;;;;;;;;;;;21.32;77.76;101940.16;10625689;27;19923;-69
2023/08/16 19:34:01;;;;;;;;;;;;;;;21.26;77.33;101932.66;10625003;27;20426;-70
2023/08/16 19:39:04;;;;;;;;;;;;;;;21.13;73.90;101937.34;10624365;27;20350;-69
2023/08/16 19:44:06;;;;;;;;;;;;;;;21.07;76.78;101924.56;10625049;27;19931;-69
2023/08/16 19:49:08;;;;;;;;;;;;;;;21.20;76.39;101917.22;10623423;28;19933;-70
2023/08/16 19:54:10;;;;;;;;;;;;;;;20.99;76.26;101906.56;10624559;28;19998;-69
2023/08/16 19:59:12;;;;;;;;;;;;;;;20.82;77.23;101913.31;10623979;28;19923;-69
2023/08/16 20:04:15;;;;;;;;;;;;;;;20.81;77.17;101903.63;10624527;28;19923;-69
2023/08/16 20:09:17;;;;;;;;;;;;;;;20.84;77.10;101898.03;10624803;28;19924;-69
2023/08/16 20:14:19;;;;;;;;;;;;;;;20.54;77.71;101893.44;10624847;28;19924;-69
2023/08/16 20:19:21;;;;;;;;;;;;;;;20.48;77.72;101889.47;10624083;28;20423;-69
2023/08/16 20:24:24;;;;;;;;;;;;;;;20.61;77.59;101894.63;10624635;28;19929;-69
2023/08/16 20:29:26;;;;;;;;;;;;;;;20.56;77.42;101900.31;10624497;28;19923;-69
2023/08/16 20:34:29;;;;;;;;;;;;;;;20.71;76.13;101905.38;10623833;28;19971;-69
2023/08/16 20:39:31;;;;;;;;;;;;;;;20.61;77.94;101910.59;10623692;28;19924;-69
2023/08/16 20:44:33;;;;;;;;;;;;;;;20.75;78.17;101914.81;10623794;28;19923;-69
2023/08/16 20:49:35;;;;;;;;;;;;;;;20.97;77.58;101929.81;10627628;27;20374;-69
2023/08/16 20:54:38;;;;;;;;;;;;;;;20.65;79.93;101930.69;10631822;27;20006;-69
2023/08/16 20:59:40;;;;;;;;;;;;;;;20.77;79.72;101926.16;10631647;27;19935;-69
2023/08/16 21:04:42;;;;;;;;;;;;;;;20.72;80.17;101921.22;10630154;27;19923;-69
2023/08/16 21:09:44;;;;;;;;;;;;;;;20.82;79.08;101926.63;10630018;27;19954;-69
2023/08/16 21:14:48;;;;;;;;;;;;;;;20.66;81.64;101927.06;10630416;27;20366;-69
2023/08/16 21:19:50;;;;;;;;;;;;;;;20.42;82.52;101928.06;10630243;27;20281;-69
2023/08/16 21:24:52;;;;;;;;;;;;;;;20.50;84.41;101921.25;10630634;27;19956;-69
2023/08/16 21:29:55;;;;;;;;;;;;;;;20.54;84.59;101928.00;10630389;27;19955;-69
2023/08/16 21:34:57;;;;;;;;;;;;;;;20.38;83.27;101928.44;10630271;27;19972;-69
2023/08/16 21:39:59;;;;;;;;;;;;;;;20.05;85.53;101919.53;10630181;27;19930;-69
2023/08/16 21:45:02;;;;;;;;;;;;;;;20.15;86.11;101922.31;10627675;27;19977;-68
2023/08/16 21:50:04;;;;;;;;;;;;;;;19.86;86.76;101921.00;10628835;27;20370;-69
2023/08/16 21:55:07;;;;;;;;;;;;;;;19.98;87.92;101916.53;10629432;27;19930;-69
2023/08/16 22:00:09;;;;;;;;;;;;;;;19.98;87.26;101911.22;10628476;27;19924;-69
2023/08/16 22:05:11;;;;;;;;;;;;;;;19.83;89.27;101905.28;10627239;27;19923;-69
2023/08/16 22:10:14;;;;;;;;;;;;;;;19.71;88.19;101905.41;10628703;27;19924;-69
2023/08/16 22:15:18;;;;;;;;;;;;;;;19.43;88.81;101915.50;10627952;27;19947;-69
2023/08/16 22:20:20;;;;;;;;;;;;;;;18.99;90.36;101909.16;10627657;27;20368;-69
2023/08/16 22:25:23;;;;;;;;;;;;;;;19.34;90.66;101911.75;10627053;27;19923;-69
2023/08/16 22:30:27;;;;;;;;;;;;;;;18.96;92.35;101906.72;10626732;27;19924;-69
2023/08/16 22:35:30;;;;;;;;;;;;;;;19.04;92.73;101904.34;10627180;27;19930;-69
2023/08/16 22:40:32;;;;;;;;;;;;;;;19.20;91.03;101906.66;10626913;27;20293;-69
2023/08/16 22:45:34;;;;;;;;;;;;;;;19.32;91.12;101905.72;10625419;27;20336;-69
2023/08/16 22:50:36;;;;;;;;;;;;;;;19.28;91.94;101915.75;10627055;27;19953;-69
2023/08/16 22:55:39;;;;;;;;;;;;;;;19.40;89.68;101915.75;10626417;27;19924;-69
2023/08/16 23:00:41;;;;;;;;;;;;;;;19.04;93.31;101914.94;10626726;27;19924;-69
2023/08/16 23:05:43;;;;;;;;;;;;;;;19.05;93.67;101925.47;10624784;27;19924;-69
2023/08/16 23:10:46;;;;;;;;;;;;;;;19.13;91.46;101924.84;10624364;27;19923;-68
2023/08/16 23:15:48;;;;;;;;;;;;;;;19.00;91.78;101930.28;10625475;27;19933;-69
2023/08/16 23:20:50;;;;;;;;;;;;;;;19.16;92.82;101934.41;10625605;27;20378;-69
2023/08/16 23:25:56;;;;;;;;;;;;;;;19.03;93.45;101923.88;10625869;27;19930;-69
2023/08/16 23:30:58;;;;;;;;;;;;;;;19.07;92.80;101925.34;10625145;27;20425;-69
2023/08/16 23:36:00;;;;;;;;;;;;;;;19.03;94.09;101935.34;10625644;27;19924;-69
2023/08/16 23:41:02;;;;;;;;;;;;;;;19.08;95.09;101927.88;10624823;27;20264;-69
2023/08/16 23:46:05;;;;;;;;;;;;;;;19.51;91.67;101934.34;10624534;27;19923;-69
2023/08/16 23:51:08;;;;;;;;;;;;;;;19.25;92.07;101925.75;10624668;27;20406;-69
2023/08/16 23:56:10;;;;;;;;;;;;;;;18.87;95.76;101926.84;10625131;28;19923;-69
